sensor_id;sensor_type;location;lat;lon;timestamp;pressure;altitude;pressure_sealevel;temperature
70533;BMP180;58088;51.186;17.130;2024-01-30T00:01:31;101850.80;;;3.70
70533;BMP180;58088;51.186;17.130;2024-01-30T00:03:57;101845.60;;;3.70
70533;BMP180;58088;51.186;17.130;2024-01-30T00:06:23;101843.20;;;3.70
70533;BMP180;58088;51.186;17.130;2024-01-30T00:08:50;101843.40;;;3.60
70533;BMP180;58088;51.186;17.130;2024-01-30T00:11:16;101839.80;;;3.60
70533;BMP180;58088;51.186;17.130;2024-01-30T00:13:42;101849.40;;;3.60
70533;BMP180;58088;51.186;17.130;2024-01-30T00:16:08;101847.20;;;3.60
70533;BMP180;58088;51.186;17.130;2024-01-30T00:18:36;101840.00;;;3.60
70533;BMP180;58088;51.186;17.130;2024-01-30T00:21:02;101845.80;;;3.66
70533;BMP180;58088;51.186;17.130;2024-01-30T00:23:28;101850.00;;;3.70
70533;BMP180;58088;51.186;17.130;2024-01-30T00:25:54;101846.80;;;3.70
70533;BMP180;58088;51.186;17.130;2024-01-30T00:28:21;101848.00;;;3.70
70533;BMP180;58088;51.186;17.130;2024-01-30T00:30:47;101852.40;;;3.70
70533;BMP180;58088;51.186;17.130;2024-01-30T00:33:13;101848.00;;;3.60
70533;BMP180;58088;51.186;17.130;2024-01-30T00:35:41;101850.80;;;3.60
70533;BMP180;58088;51.186;17.130;2024-01-30T00:38:06;101852.80;;;3.60
70533;BMP180;58088;51.186;17.130;2024-01-30T00:40:33;101850.60;;;3.60
70533;BMP180;58088;51.186;17.130;2024-01-30T00:42:59;101843.80;;;3.60
70533;BMP180;58088;51.186;17.130;2024-01-30T00:45:25;101843.20;;;3.60
70533;BMP180;58088;51.186;17.130;2024-01-30T00:47:51;101843.80;;;3.60
70533;BMP180;58088;51.186;17.130;2024-01-30T00:50:17;101847.60;;;3.52
70533;BMP180;58088;51.186;17.130;2024-01-30T00:52:44;101853.60;;;3.60
70533;BMP180;58088;51.186;17.130;2024-01-30T00:55:11;101855.40;;;3.50
70533;BMP180;58088;51.186;17.130;2024-01-30T00:57:37;101856.80;;;3.50
70533;BMP180;58088;51.186;17.130;2024-01-30T01:00:04;101852.40;;;3.50
70533;BMP180;58088;51.186;17.130;2024-01-30T01:02:32;101849.20;;;3.50
70533;BMP180;58088;51.186;17.130;2024-01-30T01:04:58;101848.00;;;3.50
70533;BMP180;58088;51.186;17.130;2024-01-30T01:07:24;101852.00;;;3.50
70533;BMP180;58088;51.186;17.130;2024-01-30T01:09:50;101845.40;;;3.50
70533;BMP180;58088;51.186;17.130;2024-01-30T01:12:17;101855.00;;;3.50
70533;BMP180;58088;51.186;17.130;2024-01-30T01:14:43;101856.40;;;3.50
70533;BMP180;58088;51.186;17.130;2024-01-30T01:17:10;101853.20;;;3.50
70533;BMP180;58088;51.186;17.130;2024-01-30T01:19:36;101852.80;;;3.50
70533;BMP180;58088;51.186;17.130;2024-01-30T01:22:02;101850.60;;;3.50
70533;BMP180;58088;51.186;17.130;2024-01-30T01:24:33;101856.00;;;3.50
70533;BMP180;58088;51.186;17.130;2024-01-30T01:27:01;101847.60;;;3.40
70533;BMP180;58088;51.186;17.130;2024-01-30T01:29:28;101843.80;;;3.40
70533;BMP180;58088;51.186;17.130;2024-01-30T01:31:55;101839.60;;;3.40
70533;BMP180;58088;51.186;17.130;2024-01-30T01:34:22;101839.80;;;3.40
70533;BMP180;58088;51.186;17.130;2024-01-30T01:36:52;101838.20;;;3.32
70533;BMP180;58088;51.186;17.130;2024-01-30T01:39:22;101837.60;;;3.30
70533;BMP180;58088;51.186;17.130;2024-01-30T01:41:51;101833.80;;;3.30
70533;BMP180;58088;51.186;17.130;2024-01-30T01:44:18;101836.40;;;3.30
70533;BMP180;58088;51.186;17.130;2024-01-30T01:46:45;101839.00;;;3.26
70533;BMP180;58088;51.186;17.130;2024-01-30T01:49:12;101839.20;;;3.20
70533;BMP180;58088;51.186;17.130;2024-01-30T01:51:41;101839.20;;;3.20
70533;BMP180;58088;51.186;17.130;2024-01-30T01:54:08;101835.40;;;3.12
70533;BMP180;58088;51.186;17.130;2024-01-30T01:56:35;101838.20;;;3.10
70533;BMP180;58088;51.186;17.130;2024-01-30T01:59:06;101836.20;;;3.10
70533;BMP180;58088;51.186;17.130;2024-01-30T02:01:37;101833.80;;;3.10
70533;BMP180;58088;51.186;17.130;2024-01-30T02:04:04;101834.20;;;3.10
70533;BMP180;58088;51.186;17.130;2024-01-30T02:06:31;101837.60;;;3.10
70533;BMP180;58088;51.186;17.130;2024-01-30T02:08:58;101836.00;;;3.10
70533;BMP180;58088;51.186;17.130;2024-01-30T02:11:24;101838.80;;;3.10
70533;BMP180;58088;51.186;17.130;2024-01-30T02:13:50;101822.80;;;3.06
70533;BMP180;58088;51.186;17.130;2024-01-30T02:16:16;101827.00;;;3.00
70533;BMP180;58088;51.186;17.130;2024-01-30T02:18:45;101826.80;;;3.00
70533;BMP180;58088;51.186;17.130;2024-01-30T02:21:18;101828.60;;;2.98
70533;BMP180;58088;51.186;17.130;2024-01-30T02:23:46;101830.60;;;2.92
70533;BMP180;58088;51.186;17.130;2024-01-30T02:26:13;101825.60;;;2.90
70533;BMP180;58088;51.186;17.130;2024-01-30T02:28:39;101824.20;;;2.90
70533;BMP180;58088;51.186;17.130;2024-01-30T02:31:05;101818.60;;;2.90
70533;BMP180;58088;51.186;17.130;2024-01-30T02:33:31;101818.60;;;2.90
70533;BMP180;58088;51.186;17.130;2024-01-30T02:35:58;101820.00;;;2.90
70533;BMP180;58088;51.186;17.130;2024-01-30T02:38:24;101827.20;;;2.90
70533;BMP180;58088;51.186;17.130;2024-01-30T02:40:53;101829.00;;;2.90
70533;BMP180;58088;51.186;17.130;2024-01-30T02:43:19;101827.60;;;2.82
70533;BMP180;58088;51.186;17.130;2024-01-30T02:45:45;101829.60;;;2.80
70533;BMP180;58088;51.186;17.130;2024-01-30T02:48:11;101828.00;;;2.80
70533;BMP180;58088;51.186;17.130;2024-01-30T02:50:37;101822.80;;;2.82
70533;BMP180;58088;51.186;17.130;2024-01-30T02:53:04;101825.60;;;2.90
70533;BMP180;58088;51.186;17.130;2024-01-30T02:55:30;101826.60;;;2.90
70533;BMP180;58088;51.186;17.130;2024-01-30T02:57:56;101824.80;;;2.90
70533;BMP180;58088;51.186;17.130;2024-01-30T03:00:23;101824.00;;;2.90
70533;BMP180;58088;51.186;17.130;2024-01-30T03:03:08;101819.80;;;2.90
70533;BMP180;58088;51.186;17.130;2024-01-30T03:05:40;101823.80;;;2.90
70533;BMP180;58088;51.186;17.130;2024-01-30T03:08:06;101824.80;;;2.90
70533;BMP180;58088;51.186;17.130;2024-01-30T03:10:32;101824.00;;;2.90
70533;BMP180;58088;51.186;17.130;2024-01-30T03:12:58;101827.80;;;2.90
70533;BMP180;58088;51.186;17.130;2024-01-30T03:15:24;101831.40;;;2.90
70533;BMP180;58088;51.186;17.130;2024-01-30T03:17:50;101836.40;;;2.90
70533;BMP180;58088;51.186;17.130;2024-01-30T03:20:16;101826.60;;;2.90
70533;BMP180;58088;51.186;17.130;2024-01-30T03:22:43;101821.20;;;2.90
70533;BMP180;58088;51.186;17.130;2024-01-30T03:25:09;101827.40;;;2.90
70533;BMP180;58088;51.186;17.130;2024-01-30T03:27:35;101819.40;;;2.90
70533;BMP180;58088;51.186;17.130;2024-01-30T03:30:01;101821.00;;;2.90
70533;BMP180;58088;51.186;17.130;2024-01-30T03:32:27;101810.20;;;2.82
70533;BMP180;58088;51.186;17.130;2024-01-30T03:34:54;101816.00;;;2.80
70533;BMP180;58088;51.186;17.130;2024-01-30T03:37:20;101807.00;;;2.80
70533;BMP180;58088;51.186;17.130;2024-01-30T03:39:46;101808.00;;;2.80
70533;BMP180;58088;51.186;17.130;2024-01-30T03:42:12;101806.20;;;2.84
70533;BMP180;58088;51.186;17.130;2024-01-30T03:44:38;101805.00;;;2.90
70533;BMP180;58088;51.186;17.130;2024-01-30T03:47:04;101804.80;;;2.90
70533;BMP180;58088;51.186;17.130;2024-01-30T03:49:30;101805.80;;;2.90
70533;BMP180;58088;51.186;17.130;2024-01-30T03:51:56;101803.20;;;2.90
70533;BMP180;58088;51.186;17.130;2024-01-30T03:54:22;101803.60;;;2.90
70533;BMP180;58088;51.186;17.130;2024-01-30T03:56:48;101798.20;;;2.90
70533;BMP180;58088;51.186;17.130;2024-01-30T03:59:14;101811.40;;;2.90
70533;BMP180;58088;51.186;17.130;2024-01-30T04:01:40;101808.80;;;2.90
70533;BMP180;58088;51.186;17.130;2024-01-30T04:04:06;101802.40;;;2.92
70533;BMP180;58088;51.186;17.130;2024-01-30T04:06:33;101804.20;;;2.96
70533;BMP180;58088;51.186;17.130;2024-01-30T04:08:59;101801.40;;;2.90
70533;BMP180;58088;51.186;17.130;2024-01-30T04:11:26;101804.20;;;2.98
70533;BMP180;58088;51.186;17.130;2024-01-30T04:13:52;101800.60;;;3.00
70533;BMP180;58088;51.186;17.130;2024-01-30T04:16:22;101807.40;;;2.96
70533;BMP180;58088;51.186;17.130;2024-01-30T04:18:49;101802.20;;;3.00
70533;BMP180;58088;51.186;17.130;2024-01-30T04:21:15;101790.00;;;2.90
70533;BMP180;58088;51.186;17.130;2024-01-30T04:23:42;101794.80;;;2.90
70533;BMP180;58088;51.186;17.130;2024-01-30T04:26:08;101792.80;;;2.90
70533;BMP180;58088;51.186;17.130;2024-01-30T04:28:34;101792.80;;;2.90
70533;BMP180;58088;51.186;17.130;2024-01-30T04:31:00;101805.40;;;2.90
70533;BMP180;58088;51.186;17.130;2024-01-30T04:33:26;101801.60;;;2.98
70533;BMP180;58088;51.186;17.130;2024-01-30T04:35:52;101802.20;;;3.00
70533;BMP180;58088;51.186;17.130;2024-01-30T04:38:19;101806.40;;;2.94
70533;BMP180;58088;51.186;17.130;2024-01-30T04:40:45;101805.40;;;2.92
70533;BMP180;58088;51.186;17.130;2024-01-30T04:43:11;101799.80;;;3.00
70533;BMP180;58088;51.186;17.130;2024-01-30T04:45:37;101811.20;;;3.00
70533;BMP180;58088;51.186;17.130;2024-01-30T04:48:03;101808.60;;;3.00
70533;BMP180;58088;51.186;17.130;2024-01-30T04:50:30;101812.80;;;3.00
70533;BMP180;58088;51.186;17.130;2024-01-30T04:52:56;101807.80;;;2.96
70533;BMP180;58088;51.186;17.130;2024-01-30T04:55:23;101801.60;;;2.90
70533;BMP180;58088;51.186;17.130;2024-01-30T04:57:49;101802.60;;;2.92
70533;BMP180;58088;51.186;17.130;2024-01-30T05:00:16;101806.60;;;3.00
70533;BMP180;58088;51.186;17.130;2024-01-30T05:02:42;101813.20;;;2.96
70533;BMP180;58088;51.186;17.130;2024-01-30T05:05:08;101810.40;;;3.00
70533;BMP180;58088;51.186;17.130;2024-01-30T05:07:36;101815.00;;;3.00
70533;BMP180;58088;51.186;17.130;2024-01-30T05:10:02;101819.40;;;3.00
70533;BMP180;58088;51.186;17.130;2024-01-30T05:12:29;101808.20;;;3.00
70533;BMP180;58088;51.186;17.130;2024-01-30T05:14:55;101807.40;;;2.92
70533;BMP180;58088;51.186;17.130;2024-01-30T05:17:21;101810.80;;;2.90
70533;BMP180;58088;51.186;17.130;2024-01-30T05:19:47;101805.80;;;2.90
70533;BMP180;58088;51.186;17.130;2024-01-30T05:22:13;101807.80;;;2.90
70533;BMP180;58088;51.186;17.130;2024-01-30T05:24:42;101801.20;;;2.88
70533;BMP180;58088;51.186;17.130;2024-01-30T05:27:08;101802.80;;;2.90
70533;BMP180;58088;51.186;17.130;2024-01-30T05:29:35;101807.60;;;2.90
70533;BMP180;58088;51.186;17.130;2024-01-30T05:32:01;101806.80;;;2.90
70533;BMP180;58088;51.186;17.130;2024-01-30T05:34:27;101804.60;;;2.92
70533;BMP180;58088;51.186;17.130;2024-01-30T05:36:53;101799.80;;;3.00
70533;BMP180;58088;51.186;17.130;2024-01-30T05:39:19;101807.40;;;3.00
70533;BMP180;58088;51.186;17.130;2024-01-30T05:41:45;101804.80;;;3.00
70533;BMP180;58088;51.186;17.130;2024-01-30T05:44:11;101812.80;;;3.00
70533;BMP180;58088;51.186;17.130;2024-01-30T05:46:38;101812.40;;;3.00
70533;BMP180;58088;51.186;17.130;2024-01-30T05:49:04;101813.60;;;3.00
70533;BMP180;58088;51.186;17.130;2024-01-30T05:51:30;101819.40;;;3.00
70533;BMP180;58088;51.186;17.130;2024-01-30T05:53:56;101816.60;;;3.00
70533;BMP180;58088;51.186;17.130;2024-01-30T05:56:23;101822.20;;;3.00
70533;BMP180;58088;51.186;17.130;2024-01-30T05:58:49;101816.80;;;3.00
70533;BMP180;58088;51.186;17.130;2024-01-30T06:01:16;101820.40;;;3.00
70533;BMP180;58088;51.186;17.130;2024-01-30T06:03:43;101819.80;;;2.90
70533;BMP180;58088;51.186;17.130;2024-01-30T06:06:09;101820.20;;;2.90
70533;BMP180;58088;51.186;17.130;2024-01-30T06:08:35;101820.40;;;2.90
70533;BMP180;58088;51.186;17.130;2024-01-30T06:11:01;101823.20;;;2.90
70533;BMP180;58088;51.186;17.130;2024-01-30T06:13:27;101823.60;;;2.90
70533;BMP180;58088;51.186;17.130;2024-01-30T06:15:54;101824.20;;;2.90
70533;BMP180;58088;51.186;17.130;2024-01-30T06:18:20;101821.00;;;2.84
70533;BMP180;58088;51.186;17.130;2024-01-30T06:20:46;101820.00;;;2.80
70533;BMP180;58088;51.186;17.130;2024-01-30T06:23:12;101817.20;;;2.80
70533;BMP180;58088;51.186;17.130;2024-01-30T06:25:40;101816.60;;;2.76
70533;BMP180;58088;51.186;17.130;2024-01-30T06:28:07;101821.60;;;2.78
70533;BMP180;58088;51.186;17.130;2024-01-30T06:30:33;101817.80;;;2.72
70533;BMP180;58088;51.186;17.130;2024-01-30T06:32:59;101822.20;;;2.70
70533;BMP180;58088;51.186;17.130;2024-01-30T06:35:25;101822.80;;;2.70
70533;BMP180;58088;51.186;17.130;2024-01-30T06:37:51;101827.20;;;2.70
70533;BMP180;58088;51.186;17.130;2024-01-30T06:40:18;101823.00;;;2.60
70533;BMP180;58088;51.186;17.130;2024-01-30T06:42:44;101824.60;;;2.50
70533;BMP180;58088;51.186;17.130;2024-01-30T06:45:10;101828.40;;;2.50
70533;BMP180;58088;51.186;17.130;2024-01-30T06:47:36;101829.40;;;2.50
70533;BMP180;58088;51.186;17.130;2024-01-30T06:50:02;101829.40;;;2.50
70533;BMP180;58088;51.186;17.130;2024-01-30T06:52:29;101825.00;;;2.50
70533;BMP180;58088;51.186;17.130;2024-01-30T06:54:55;101819.60;;;2.50
70533;BMP180;58088;51.186;17.130;2024-01-30T06:57:21;101825.40;;;2.50
70533;BMP180;58088;51.186;17.130;2024-01-30T06:59:47;101819.20;;;2.50
70533;BMP180;58088;51.186;17.130;2024-01-30T07:02:13;101822.40;;;2.50
70533;BMP180;58088;51.186;17.130;2024-01-30T07:04:40;101826.40;;;2.58
70533;BMP180;58088;51.186;17.130;2024-01-30T07:07:07;101822.40;;;2.70
70533;BMP180;58088;51.186;17.130;2024-01-30T07:09:38;101820.60;;;2.80
70533;BMP180;58088;51.186;17.130;2024-01-30T07:12:05;101821.00;;;2.90
70533;BMP180;58088;51.186;17.130;2024-01-30T07:14:32;101818.00;;;3.02
70533;BMP180;58088;51.186;17.130;2024-01-30T07:16:58;101821.80;;;3.14
70533;BMP180;58088;51.186;17.130;2024-01-30T07:19:24;101822.20;;;3.30
70533;BMP180;58088;51.186;17.130;2024-01-30T07:21:50;101826.00;;;3.50
70533;BMP180;58088;51.186;17.130;2024-01-30T07:24:16;101822.60;;;3.74
70533;BMP180;58088;51.186;17.130;2024-01-30T07:26:43;101817.40;;;3.90
70533;BMP180;58088;51.186;17.130;2024-01-30T07:29:09;101814.20;;;4.18
70533;BMP180;58088;51.186;17.130;2024-01-30T07:31:36;101830.40;;;4.40
70533;BMP180;58088;51.186;17.130;2024-01-30T07:34:02;101828.60;;;4.62
70533;BMP180;58088;51.186;17.130;2024-01-30T07:36:28;101827.20;;;4.80
70533;BMP180;58088;51.186;17.130;2024-01-30T07:38:57;101830.80;;;5.02
70533;BMP180;58088;51.186;17.130;2024-01-30T07:41:24;101830.40;;;5.20
70533;BMP180;58088;51.186;17.130;2024-01-30T07:43:51;101838.60;;;5.40
70533;BMP180;58088;51.186;17.130;2024-01-30T07:46:17;101827.00;;;5.50
70533;BMP180;58088;51.186;17.130;2024-01-30T07:48:44;101835.20;;;5.60
70533;BMP180;58088;51.186;17.130;2024-01-30T07:51:10;101837.60;;;5.76
70533;BMP180;58088;51.186;17.130;2024-01-30T07:53:36;101841.60;;;5.90
70533;BMP180;58088;51.186;17.130;2024-01-30T07:56:02;101839.60;;;6.00
70533;BMP180;58088;51.186;17.130;2024-01-30T07:58:28;101827.80;;;6.10
70533;BMP180;58088;51.186;17.130;2024-01-30T08:00:54;101833.60;;;6.16
70533;BMP180;58088;51.186;17.130;2024-01-30T08:03:22;101832.40;;;6.20
70533;BMP180;58088;51.186;17.130;2024-01-30T08:05:48;101828.80;;;6.30
70533;BMP180;58088;51.186;17.130;2024-01-30T08:08:14;101828.20;;;6.50
70533;BMP180;58088;51.186;17.130;2024-01-30T08:10:41;101825.80;;;6.60
70533;BMP180;58088;51.186;17.130;2024-01-30T08:13:07;101830.00;;;6.80
70533;BMP180;58088;51.186;17.130;2024-01-30T08:15:34;101821.40;;;7.00
70533;BMP180;58088;51.186;17.130;2024-01-30T08:18:00;101822.80;;;7.14
70533;BMP180;58088;51.186;17.130;2024-01-30T08:20:26;101818.40;;;7.30
70533;BMP180;58088;51.186;17.130;2024-01-30T08:22:52;101825.20;;;7.50
70533;BMP180;58088;51.186;17.130;2024-01-30T08:25:19;101820.40;;;7.60
70533;BMP180;58088;51.186;17.130;2024-01-30T08:27:45;101824.40;;;7.70
70533;BMP180;58088;51.186;17.130;2024-01-30T08:30:11;101813.80;;;7.86
70533;BMP180;58088;51.186;17.130;2024-01-30T08:32:37;101813.20;;;8.00
70533;BMP180;58088;51.186;17.130;2024-01-30T08:35:04;101815.20;;;8.10
70533;BMP180;58088;51.186;17.130;2024-01-30T08:37:30;101821.60;;;8.20
70533;BMP180;58088;51.186;17.130;2024-01-30T08:39:56;101811.80;;;8.40
70533;BMP180;58088;51.186;17.130;2024-01-30T08:42:22;101808.60;;;8.50
70533;BMP180;58088;51.186;17.130;2024-01-30T08:44:49;101808.80;;;8.70
70533;BMP180;58088;51.186;17.130;2024-01-30T08:47:17;101811.60;;;8.80
70533;BMP180;58088;51.186;17.130;2024-01-30T08:49:44;101808.60;;;8.90
70533;BMP180;58088;51.186;17.130;2024-01-30T08:52:11;101804.40;;;9.00
70533;BMP180;58088;51.186;17.130;2024-01-30T08:54:37;101806.80;;;9.16
70533;BMP180;58088;51.186;17.130;2024-01-30T08:57:04;101807.80;;;9.30
70533;BMP180;58088;51.186;17.130;2024-01-30T08:59:30;101808.40;;;9.40
70533;BMP180;58088;51.186;17.130;2024-01-30T09:01:56;101809.40;;;9.50
70533;BMP180;58088;51.186;17.130;2024-01-30T09:04:24;101806.40;;;9.60
70533;BMP180;58088;51.186;17.130;2024-01-30T09:06:51;101806.00;;;9.70
70533;BMP180;58088;51.186;17.130;2024-01-30T09:09:17;101811.00;;;9.80
70533;BMP180;58088;51.186;17.130;2024-01-30T09:11:44;101810.40;;;9.90
70533;BMP180;58088;51.186;17.130;2024-01-30T09:14:10;101809.60;;;10.00
70533;BMP180;58088;51.186;17.130;2024-01-30T09:16:36;101807.20;;;10.08
70533;BMP180;58088;51.186;17.130;2024-01-30T09:19:02;101808.20;;;10.12
70533;BMP180;58088;51.186;17.130;2024-01-30T09:21:29;101807.60;;;10.20
70533;BMP180;58088;51.186;17.130;2024-01-30T09:24:02;101805.60;;;10.30
70533;BMP180;58088;51.186;17.130;2024-01-30T09:26:31;101804.40;;;10.42
70533;BMP180;58088;51.186;17.130;2024-01-30T09:28:58;101797.20;;;10.50
70533;BMP180;58088;51.186;17.130;2024-01-30T09:31:25;101798.00;;;10.60
70533;BMP180;58088;51.186;17.130;2024-01-30T09:33:51;101798.00;;;10.80
70533;BMP180;58088;51.186;17.130;2024-01-30T09:36:20;101789.40;;;10.90
70533;BMP180;58088;51.186;17.130;2024-01-30T09:38:49;101786.00;;;11.00
70533;BMP180;58088;51.186;17.130;2024-01-30T09:41:18;101791.80;;;11.10
70533;BMP180;58088;51.186;17.130;2024-01-30T09:43:48;101788.20;;;11.20
70533;BMP180;58088;51.186;17.130;2024-01-30T09:46:17;101785.20;;;11.30
70533;BMP180;58088;51.186;17.130;2024-01-30T09:48:46;101783.20;;;11.40
70533;BMP180;58088;51.186;17.130;2024-01-30T09:51:18;101778.40;;;11.50
70533;BMP180;58088;51.186;17.130;2024-01-30T09:53:45;101777.00;;;11.60
70533;BMP180;58088;51.186;17.130;2024-01-30T09:56:12;101784.00;;;11.70
70533;BMP180;58088;51.186;17.130;2024-01-30T09:58:38;101775.60;;;11.80
70533;BMP180;58088;51.186;17.130;2024-01-30T10:01:06;101770.60;;;11.90
70533;BMP180;58088;51.186;17.130;2024-01-30T10:03:36;101774.00;;;11.94
70533;BMP180;58088;51.186;17.130;2024-01-30T10:06:03;101769.20;;;12.00
70533;BMP180;58088;51.186;17.130;2024-01-30T10:08:32;101765.40;;;12.08
70533;BMP180;58088;51.186;17.130;2024-01-30T10:10:59;101761.00;;;12.12
70533;BMP180;58088;51.186;17.130;2024-01-30T10:13:26;101759.40;;;12.20
70533;BMP180;58088;51.186;17.130;2024-01-30T10:15:53;101759.00;;;12.30
70533;BMP180;58088;51.186;17.130;2024-01-30T10:18:22;101753.20;;;12.40
70533;BMP180;58088;51.186;17.130;2024-01-30T10:20:48;101751.60;;;12.40
70533;BMP180;58088;51.186;17.130;2024-01-30T10:23:16;101748.80;;;12.50
70533;BMP180;58088;51.186;17.130;2024-01-30T10:25:43;101751.20;;;12.58
70533;BMP180;58088;51.186;17.130;2024-01-30T10:28:11;101748.80;;;12.60
70533;BMP180;58088;51.186;17.130;2024-01-30T10:30:38;101749.80;;;12.70
70533;BMP180;58088;51.186;17.130;2024-01-30T10:33:05;101752.80;;;12.72
70533;BMP180;58088;51.186;17.130;2024-01-30T10:35:31;101750.60;;;12.80
70533;BMP180;58088;51.186;17.130;2024-01-30T10:37:59;101745.80;;;12.88
70533;BMP180;58088;51.186;17.130;2024-01-30T10:40:29;101743.00;;;12.90
70533;BMP180;58088;51.186;17.130;2024-01-30T10:42:56;101745.60;;;12.90
70533;BMP180;58088;51.186;17.130;2024-01-30T10:45:23;101737.80;;;13.00
70533;BMP180;58088;51.186;17.130;2024-01-30T10:47:54;101733.80;;;13.10
70533;BMP180;58088;51.186;17.130;2024-01-30T10:50:25;101733.00;;;13.10
70533;BMP180;58088;51.186;17.130;2024-01-30T10:52:55;101733.80;;;13.10
70533;BMP180;58088;51.186;17.130;2024-01-30T10:55:22;101727.40;;;13.18
70533;BMP180;58088;51.186;17.130;2024-01-30T10:57:51;101725.20;;;13.20
70533;BMP180;58088;51.186;17.130;2024-01-30T11:00:18;101720.60;;;13.30
70533;BMP180;58088;51.186;17.130;2024-01-30T11:02:48;101719.20;;;13.36
70533;BMP180;58088;51.186;17.130;2024-01-30T11:05:24;101710.00;;;13.40
70533;BMP180;58088;51.186;17.130;2024-01-30T11:07:53;101709.40;;;13.50
70533;BMP180;58088;51.186;17.130;2024-01-30T11:10:19;101718.80;;;13.42
70533;BMP180;58088;51.186;17.130;2024-01-30T11:12:46;101714.00;;;13.40
70533;BMP180;58088;51.186;17.130;2024-01-30T11:15:15;101709.20;;;13.40
70533;BMP180;58088;51.186;17.130;2024-01-30T11:20:35;101704.60;;;13.40
70533;BMP180;58088;51.186;17.130;2024-01-30T11:23:03;101704.60;;;13.40
70533;BMP180;58088;51.186;17.130;2024-01-30T11:25:33;101703.00;;;13.32
70533;BMP180;58088;51.186;17.130;2024-01-30T11:28:04;101708.00;;;13.30
70533;BMP180;58088;51.186;17.130;2024-01-30T11:30:32;101697.80;;;13.30
70533;BMP180;58088;51.186;17.130;2024-01-30T11:33:12;101690.20;;;13.30
70533;BMP180;58088;51.186;17.130;2024-01-30T11:35:43;101688.60;;;13.30
70533;BMP180;58088;51.186;17.130;2024-01-30T11:38:13;101686.40;;;13.30
70533;BMP180;58088;51.186;17.130;2024-01-30T11:40:40;101687.20;;;13.30
70533;BMP180;58088;51.186;17.130;2024-01-30T11:43:08;101685.80;;;13.30
70533;BMP180;58088;51.186;17.130;2024-01-30T11:45:36;101675.20;;;13.40
70533;BMP180;58088;51.186;17.130;2024-01-30T11:48:03;101670.80;;;13.40
70533;BMP180;58088;51.186;17.130;2024-01-30T11:50:31;101667.80;;;13.50
70533;BMP180;58088;51.186;17.130;2024-01-30T11:53:02;101666.00;;;13.50
70533;BMP180;58088;51.186;17.130;2024-01-30T11:55:32;101662.00;;;13.46
70533;BMP180;58088;51.186;17.130;2024-01-30T11:57:58;101662.20;;;13.42
70533;BMP180;58088;51.186;17.130;2024-01-30T12:00:26;101661.40;;;13.40
70533;BMP180;58088;51.186;17.130;2024-01-30T12:02:55;101652.80;;;13.40
70533;BMP180;58088;51.186;17.130;2024-01-30T12:05:26;101647.40;;;13.40
70533;BMP180;58088;51.186;17.130;2024-01-30T12:07:52;101646.40;;;13.40
70533;BMP180;58088;51.186;17.130;2024-01-30T12:10:19;101651.20;;;13.52
70533;BMP180;58088;51.186;17.130;2024-01-30T12:12:55;101646.00;;;13.60
70533;BMP180;58088;51.186;17.130;2024-01-30T12:15:22;101643.20;;;13.70
70533;BMP180;58088;51.186;17.130;2024-01-30T12:17:49;101642.00;;;13.80
70533;BMP180;58088;51.186;17.130;2024-01-30T12:20:18;101635.60;;;13.80
70533;BMP180;58088;51.186;17.130;2024-01-30T12:22:47;101636.20;;;13.90
70533;BMP180;58088;51.186;17.130;2024-01-30T12:25:16;101633.00;;;13.92
70533;BMP180;58088;51.186;17.130;2024-01-30T12:27:46;101635.20;;;14.00
70533;BMP180;58088;51.186;17.130;2024-01-30T12:30:17;101628.00;;;14.00
70533;BMP180;58088;51.186;17.130;2024-01-30T12:32:48;101628.60;;;14.10
70533;BMP180;58088;51.186;17.130;2024-01-30T12:35:28;101628.20;;;14.10
70533;BMP180;58088;51.186;17.130;2024-01-30T12:37:55;101625.00;;;14.10
70533;BMP180;58088;51.186;17.130;2024-01-30T12:40:33;101617.00;;;14.14
70533;BMP180;58088;51.186;17.130;2024-01-30T12:43:00;101619.40;;;14.20
70533;BMP180;58088;51.186;17.130;2024-01-30T12:45:27;101618.60;;;14.20
70533;BMP180;58088;51.186;17.130;2024-01-30T12:47:53;101614.20;;;14.20
70533;BMP180;58088;51.186;17.130;2024-01-30T12:50:20;101616.60;;;14.18
70533;BMP180;58088;51.186;17.130;2024-01-30T12:52:47;101618.20;;;14.10
70533;BMP180;58088;51.186;17.130;2024-01-30T12:55:13;101617.40;;;14.10
70533;BMP180;58088;51.186;17.130;2024-01-30T12:57:39;101612.60;;;14.10
70533;BMP180;58088;51.186;17.130;2024-01-30T13:00:06;101618.20;;;14.06
70533;BMP180;58088;51.186;17.130;2024-01-30T13:02:35;101615.60;;;14.08
70533;BMP180;58088;51.186;17.130;2024-01-30T13:05:03;101609.60;;;14.00
70533;BMP180;58088;51.186;17.130;2024-01-30T13:07:30;101610.40;;;14.00
70533;BMP180;58088;51.186;17.130;2024-01-30T13:09:57;101608.20;;;14.00
70533;BMP180;58088;51.186;17.130;2024-01-30T13:12:30;101609.60;;;14.00
70533;BMP180;58088;51.186;17.130;2024-01-30T13:14:58;101611.20;;;14.00
70533;BMP180;58088;51.186;17.130;2024-01-30T13:17:27;101607.60;;;14.00
70533;BMP180;58088;51.186;17.130;2024-01-30T13:19:54;101601.60;;;13.90
70533;BMP180;58088;51.186;17.130;2024-01-30T13:22:20;101595.20;;;13.90
70533;BMP180;58088;51.186;17.130;2024-01-30T13:24:50;101593.20;;;13.90
70533;BMP180;58088;51.186;17.130;2024-01-30T13:27:17;101597.60;;;13.86
70533;BMP180;58088;51.186;17.130;2024-01-30T13:29:44;101598.80;;;13.80
70533;BMP180;58088;51.186;17.130;2024-01-30T13:32:10;101601.80;;;13.70
70533;BMP180;58088;51.186;17.130;2024-01-30T13:34:36;101594.80;;;13.70
70533;BMP180;58088;51.186;17.130;2024-01-30T13:37:02;101594.60;;;13.60
70533;BMP180;58088;51.186;17.130;2024-01-30T13:39:29;101594.00;;;13.60
70533;BMP180;58088;51.186;17.130;2024-01-30T13:41:55;101597.00;;;13.50
70533;BMP180;58088;51.186;17.130;2024-01-30T13:44:25;101595.00;;;13.50
70533;BMP180;58088;51.186;17.130;2024-01-30T13:46:55;101594.60;;;13.40
70533;BMP180;58088;51.186;17.130;2024-01-30T13:49:21;101594.60;;;13.40
70533;BMP180;58088;51.186;17.130;2024-01-30T13:51:48;101596.40;;;13.30
70533;BMP180;58088;51.186;17.130;2024-01-30T13:54:17;101592.00;;;13.22